createdAt,value
2017-05-27T00:02:03.563Z,2.98
2017-05-27T00:04:33.863Z,3.40
2017-05-27T00:07:05.470Z,3.20
2017-05-27T00:09:35.483Z,3.46
2017-05-27T00:12:08.174Z,3.20
2017-05-27T00:14:36.319Z,3.28
2017-05-27T00:17:09.146Z,4.10
2017-05-27T00:19:37.419Z,3.60
2017-05-27T00:22:08.045Z,3.90
2017-05-27T00:24:37.495Z,4.30
2017-05-27T00:27:06.396Z,4.00
2017-05-27T00:29:35.286Z,4.56
2017-05-27T00:32:05.069Z,4.22
2017-05-27T00:34:33.960Z,4.84
2017-05-27T00:37:02.901Z,4.30
2017-05-27T00:39:31.811Z,4.58
2017-05-27T00:42:04.859Z,5.12
2017-05-27T00:44:33.779Z,4.84
2017-05-27T00:47:04.431Z,4.50
2017-05-27T00:49:34.477Z,4.12
2017-05-27T00:52:03.406Z,4.02
2017-05-27T00:54:32.355Z,3.88
2017-05-27T00:57:01.247Z,3.56
2017-05-27T00:59:30.239Z,3.60
2017-05-27T01:01:59.170Z,4.06
2017-05-27T01:04:29.962Z,4.28
2017-05-27T01:06:58.908Z,4.20
2017-05-27T01:09:27.802Z,4.34
2017-05-27T01:11:56.809Z,3.48
2017-05-27T01:14:26.608Z,4.30
2017-05-27T01:16:55.499Z,4.34
2017-05-27T01:19:25.775Z,4.40
2017-05-27T01:21:54.708Z,3.82
2017-05-27T01:24:24.463Z,4.02
2017-05-27T01:26:53.346Z,4.62
2017-05-27T01:29:22.111Z,4.50
2017-05-27T01:31:50.255Z,5.02
2017-05-27T01:34:22.222Z,4.72
2017-05-27T01:36:51.135Z,4.48
2017-05-27T01:39:20.831Z,4.98
2017-05-27T01:41:49.728Z,4.90
2017-05-27T01:44:18.637Z,5.84
2017-05-27T01:46:48.454Z,5.38
2017-05-27T01:49:17.381Z,5.20
2017-05-27T01:51:46.765Z,4.76
2017-05-27T01:54:18.924Z,5.00
2017-05-27T01:56:48.389Z,4.66
2017-05-27T01:59:17.294Z,5.74
2017-05-27T02:01:46.116Z,4.76
2017-05-27T02:04:15.017Z,5.30
2017-05-27T02:06:43.942Z,4.90
2017-05-27T02:09:12.846Z,4.98
2017-05-27T02:11:41.736Z,4.66
2017-05-27T02:14:09.891Z,5.12
2017-05-27T02:16:38.793Z,5.28
2017-05-27T02:19:06.954Z,5.24
2017-05-27T02:21:36.785Z,5.20
2017-05-27T02:24:05.672Z,5.30
2017-05-27T02:26:34.579Z,5.72
2017-05-27T02:29:03.473Z,5.66
2017-05-27T02:31:32.392Z,5.00
2017-05-27T02:34:00.558Z,4.90
2017-05-27T02:36:29.548Z,5.78
2017-05-27T02:38:58.448Z,6.12
2017-05-27T02:41:27.339Z,7.36
2017-05-27T02:43:56.243Z,6.72
2017-05-27T02:46:25.131Z,6.18
2017-05-27T02:48:54.173Z,6.80
2017-05-27T02:51:23.075Z,6.38
2017-05-27T02:53:51.978Z,6.48
2017-05-27T02:56:20.894Z,7.06
2017-05-27T02:58:49.783Z,5.80
2017-05-27T03:01:18.696Z,5.80
2017-05-27T03:03:47.633Z,5.86
2017-05-27T03:06:16.560Z,6.88
2017-05-27T03:08:45.996Z,5.48
2017-05-27T03:11:14.123Z,5.76
2017-05-27T03:13:42.288Z,6.30
2017-05-27T03:16:13.143Z,6.60
2017-05-27T03:18:41.280Z,5.88
2017-05-27T03:21:11.206Z,6.42
2017-05-27T03:23:39.418Z,6.96
2017-05-27T03:26:08.313Z,6.96
2017-05-27T03:28:37.199Z,6.44
2017-05-27T03:31:06.132Z,5.80
2017-05-27T03:33:35.036Z,6.16
2017-05-27T03:36:03.941Z,7.82
2017-05-27T03:38:38.643Z,5.56
2017-05-27T03:41:07.597Z,6.40
2017-05-27T03:43:35.727Z,5.74
2017-05-27T03:46:04.659Z,6.08
2017-05-27T03:48:33.585Z,6.04
2017-05-27T03:51:02.536Z,5.82
2017-05-27T03:53:30.718Z,6.14
2017-05-27T03:55:59.604Z,5.92
2017-05-27T03:58:28.553Z,5.78
2017-05-27T04:00:57.463Z,4.86
2017-05-27T04:03:26.355Z,5.44
2017-05-27T04:05:55.291Z,4.90
2017-05-27T04:08:25.138Z,5.52
2017-05-27T04:10:54.039Z,5.72
2017-05-27T04:13:22.938Z,4.82
2017-05-27T04:15:51.822Z,4.66
2017-05-27T04:18:20.748Z,5.32
2017-05-27T04:20:49.662Z,4.74
2017-05-27T04:23:18.586Z,4.82
2017-05-27T04:25:47.518Z,5.78
2017-05-27T04:28:16.411Z,5.14
2017-05-27T04:30:45.335Z,5.20
2017-05-27T04:33:14.225Z,4.76
2017-05-27T04:35:43.199Z,4.70
2017-05-27T04:38:11.395Z,5.06
2017-05-27T04:40:40.306Z,4.42
2017-05-27T04:43:10.422Z,5.44
2017-05-27T04:45:39.451Z,4.70
2017-05-27T04:48:08.422Z,4.52
2017-05-27T04:50:36.790Z,5.82
2017-05-27T04:53:05.711Z,4.30
2017-05-27T04:55:35.604Z,4.50
2017-05-27T04:58:04.501Z,5.10
2017-05-27T05:00:33.398Z,4.98
2017-05-27T05:03:02.295Z,4.20
2017-05-27T05:05:31.571Z,4.18
2017-05-27T05:08:09.969Z,4.86
2017-05-27T05:10:42.731Z,3.84
2017-05-27T05:13:11.671Z,5.26
2017-05-27T05:15:40.621Z,4.60
2017-05-27T05:18:16.185Z,4.96
2017-05-27T05:20:45.143Z,4.66
2017-05-27T05:23:14.027Z,5.22
2017-05-27T05:25:42.973Z,6.12
2017-05-27T05:28:11.882Z,5.36
2017-05-27T05:30:43.029Z,5.60
2017-05-27T05:33:12.188Z,5.22
2017-05-27T05:35:41.157Z,6.08
2017-05-27T05:38:09.337Z,5.48
2017-05-27T05:40:38.351Z,5.86
2017-05-27T05:43:11.988Z,5.86
2017-05-27T05:45:40.991Z,5.20
2017-05-27T05:48:09.913Z,5.76
2017-05-27T05:50:38.184Z,5.20
2017-05-27T05:53:07.121Z,5.36
2017-05-27T05:55:36.057Z,5.14
2017-05-27T05:58:05.021Z,5.56
2017-05-27T06:00:33.960Z,5.44
2017-05-27T06:03:02.920Z,5.58
2017-05-27T06:05:35.660Z,5.10
2017-05-27T06:08:06.074Z,5.46
2017-05-27T06:10:35.348Z,4.72
2017-05-27T06:13:04.257Z,5.12
2017-05-27T06:15:35.011Z,5.72
2017-05-27T06:18:06.817Z,5.30
2017-05-27T06:20:35.800Z,5.94
2017-05-27T06:23:04.017Z,6.56
2017-05-27T06:25:35.069Z,4.34
2017-05-27T06:28:04.057Z,5.06
2017-05-27T06:30:33.021Z,5.46
2017-05-27T06:33:04.717Z,4.96
2017-05-27T06:35:33.660Z,5.14
2017-05-27T06:38:02.636Z,5.24
2017-05-27T06:40:31.595Z,5.18
2017-05-27T06:43:00.562Z,5.40
2017-05-27T06:45:41.027Z,5.16
2017-05-27T06:48:10.042Z,4.84
2017-05-27T06:50:52.816Z,4.28
2017-05-27T06:56:15.364Z,4.78
2017-05-27T06:58:45.335Z,5.20
2017-05-27T07:01:17.431Z,4.24
2017-05-27T07:03:50.996Z,4.60
2017-05-27T07:06:20.016Z,4.40
2017-05-27T07:08:48.968Z,4.80
2017-05-27T07:11:17.149Z,4.40
2017-05-27T07:13:46.097Z,4.42
2017-05-27T07:16:18.681Z,5.14
2017-05-27T07:18:50.625Z,5.10
2017-05-27T07:21:24.322Z,4.90
2017-05-27T07:23:56.753Z,5.10
2017-05-27T07:26:28.890Z,5.08
2017-05-27T07:29:02.346Z,4.80
2017-05-27T07:31:31.437Z,4.58
2017-05-27T07:34:00.294Z,4.86
2017-05-27T07:36:30.189Z,4.44
2017-05-27T07:39:00.285Z,5.04
2017-05-27T07:41:29.237Z,5.20
2017-05-27T07:43:58.889Z,5.36
2017-05-27T07:46:29.099Z,4.70
2017-05-27T07:49:06.758Z,4.98
2017-05-27T07:51:37.725Z,4.76
2017-05-27T07:54:09.317Z,4.90
2017-05-27T07:56:39.474Z,4.86
2017-05-27T07:59:12.275Z,4.68
2017-05-27T08:01:53.879Z,4.54
2017-05-27T08:04:24.188Z,4.46
2017-05-27T08:06:53.100Z,4.38
2017-05-27T08:09:22.085Z,5.14
2017-05-27T08:11:51.755Z,4.48
2017-05-27T08:14:36.239Z,5.60
2017-05-27T08:17:05.171Z,4.18
2017-05-27T08:19:34.098Z,4.84
2017-05-27T08:22:04.073Z,4.20
2017-05-27T08:24:33.919Z,4.34
2017-05-27T08:27:02.899Z,4.56
2017-05-27T09:20:50.342Z,3.64
2017-05-27T09:23:19.471Z,3.46
2017-05-27T09:25:48.405Z,3.26
2017-05-27T09:28:18.040Z,3.34
2017-05-27T09:30:47.068Z,3.46
2017-05-27T09:33:16.954Z,3.48
2017-05-27T09:35:49.399Z,3.08
2017-05-27T09:38:18.410Z,3.14
2017-05-27T09:40:47.392Z,3.24
2017-05-27T09:43:19.890Z,3.86
2017-05-27T09:45:48.905Z,3.48
2017-05-27T09:48:17.858Z,3.14
2017-05-27T09:50:46.807Z,3.02
2017-05-27T09:53:15.755Z,3.08
2017-05-27T09:55:44.745Z,3.58
2017-05-27T09:58:13.709Z,3.08
2017-05-27T10:00:41.850Z,3.26
2017-05-27T10:03:10.805Z,2.98
2017-05-27T10:05:39.682Z,3.10
2017-05-27T10:08:08.611Z,3.66
2017-05-27T10:10:38.544Z,3.44
2017-05-27T10:13:07.944Z,2.86
2017-05-27T10:15:36.852Z,3.20
2017-05-27T10:18:06.744Z,3.40
2017-05-27T10:20:35.679Z,3.70
2017-05-27T10:23:03.882Z,3.12
2017-05-27T10:25:32.820Z,3.16
2017-05-27T10:28:01.749Z,3.14
2017-05-27T10:30:32.399Z,3.52
2017-05-27T10:33:01.375Z,3.28
2017-05-27T10:35:31.281Z,2.74
2017-05-27T10:38:00.254Z,2.74
2017-05-27T10:40:29.196Z,2.96
2017-05-27T10:42:58.157Z,3.12
2017-05-27T10:45:27.084Z,2.84
2017-05-27T10:47:56.013Z,2.90
2017-05-27T10:50:24.995Z,2.80
2017-05-27T10:52:53.943Z,2.96
2017-05-27T11:39:38.188Z,3.40
2017-05-27T11:42:08.179Z,3.20
2017-05-27T11:44:49.462Z,3.76
2017-05-27T11:47:18.410Z,3.64
2017-05-27T11:49:48.159Z,2.90
2017-05-27T11:52:17.831Z,3.08
2017-05-27T11:54:50.735Z,2.94
2017-05-27T11:57:19.711Z,2.98
2017-05-27T11:59:48.654Z,3.60
2017-05-27T12:02:19.924Z,2.78
2017-05-27T12:04:48.817Z,3.42
2017-05-27T12:07:17.804Z,3.30
2017-05-27T12:09:47.204Z,3.00
2017-05-27T12:12:16.131Z,3.10
2017-05-27T12:14:47.999Z,4.40
2017-05-27T12:17:21.347Z,4.68
2017-05-27T12:19:54.297Z,4.62
2017-05-27T12:22:23.290Z,3.38
2017-05-27T12:24:55.713Z,3.46
2017-05-27T12:27:24.641Z,3.02
2017-05-27T12:29:53.569Z,3.26
2017-05-27T12:32:23.538Z,3.38
2017-05-27T12:34:53.433Z,3.36
2017-05-27T12:37:23.371Z,3.60
2017-05-27T12:39:52.304Z,3.88
2017-05-27T12:42:21.244Z,2.68
2017-05-27T12:44:51.176Z,2.98
2017-05-27T12:47:20.146Z,2.58
2017-05-27T12:49:49.135Z,2.24
2017-05-27T12:52:18.186Z,3.54
2017-05-27T12:54:47.243Z,3.02
2017-05-27T12:57:22.560Z,2.66
2017-05-27T12:59:51.505Z,3.10
2017-05-27T13:02:19.658Z,2.50
2017-05-27T13:04:49.818Z,2.50
2017-05-27T13:07:18.799Z,2.48
2017-05-27T13:09:47.759Z,2.58
2017-05-27T13:12:16.015Z,2.62
2017-05-27T13:14:45.044Z,2.78
2017-05-27T13:17:14.003Z,1.94
2017-05-27T13:19:42.952Z,2.78
2017-05-27T13:22:11.406Z,2.50
2017-05-27T13:24:40.474Z,2.42
2017-05-27T13:27:09.473Z,2.32
2017-05-27T13:29:41.656Z,2.56
2017-05-27T13:32:10.656Z,2.38
2017-05-27T13:34:38.898Z,3.12
2017-05-27T13:37:10.040Z,2.34
2017-05-27T13:39:38.984Z,2.26
2017-05-27T13:42:07.969Z,2.32
2017-05-27T13:44:36.192Z,2.32
2017-05-27T13:47:05.195Z,2.62
2017-05-27T13:49:34.107Z,2.00
2017-05-27T13:52:02.238Z,2.00
2017-05-27T13:54:31.154Z,1.92
2017-05-27T13:57:00.100Z,1.90
2017-05-27T13:59:28.861Z,1.60
2017-05-27T14:01:57.802Z,1.90
2017-05-27T14:04:26.734Z,2.18
2017-05-27T14:06:55.673Z,1.92
2017-05-27T14:09:24.597Z,2.18
2017-05-27T14:11:53.537Z,1.94
2017-05-27T14:14:22.438Z,1.88
2017-05-27T14:16:52.451Z,2.20
2017-05-27T14:19:20.632Z,1.90
2017-05-27T14:21:49.554Z,1.78
2017-05-27T14:24:18.484Z,1.80
2017-05-27T14:26:48.596Z,1.88
2017-05-27T14:29:17.599Z,1.82
2017-05-27T14:31:47.370Z,2.04
2017-05-27T14:34:19.988Z,1.80
2017-05-27T14:36:48.874Z,2.24
2017-05-27T14:39:17.802Z,2.24
2017-05-27T14:41:46.723Z,1.90
2017-05-27T14:44:17.779Z,2.00
2017-05-27T14:46:46.730Z,1.84
2017-05-27T14:49:20.163Z,2.04
2017-05-27T14:51:49.143Z,2.40
2017-05-27T14:54:17.296Z,2.18
2017-05-27T14:56:46.237Z,2.10
2017-05-27T14:59:15.199Z,1.80
2017-05-27T15:01:44.163Z,1.72
2017-05-27T15:04:13.089Z,2.06
2017-05-27T15:06:43.026Z,1.56
2017-05-27T15:09:13.928Z,2.00
2017-05-27T15:11:42.864Z,1.60
2017-05-27T15:14:11.825Z,1.82
2017-05-27T15:16:40.762Z,2.20
2017-05-27T15:19:09.655Z,2.00
2017-05-27T15:21:39.318Z,1.80
2017-05-27T15:24:08.345Z,1.58
2017-05-27T15:26:40.031Z,1.92
2017-05-27T15:29:08.968Z,2.62
2017-05-27T15:31:37.953Z,2.50
2017-05-27T15:34:07.865Z,2.18
2017-05-27T15:36:36.868Z,2.04
2017-05-27T15:39:05.793Z,2.00
2017-05-27T15:41:36.632Z,1.42
2017-05-27T15:44:08.625Z,2.24
2017-05-27T15:46:45.797Z,2.38
2017-05-27T15:49:14.750Z,2.14
2017-05-27T15:51:43.677Z,2.14
2017-05-27T15:54:12.581Z,2.48
2017-05-27T15:56:41.501Z,2.70
2017-05-27T15:59:10.395Z,2.10
2017-05-27T16:01:38.600Z,2.50
2017-05-27T16:04:06.740Z,2.40
2017-05-27T16:06:35.661Z,2.78
2017-05-27T16:09:04.467Z,2.08
2017-05-27T16:11:33.404Z,2.38
2017-05-27T16:14:02.401Z,1.98
2017-05-27T16:16:31.356Z,2.18
2017-05-27T16:19:00.441Z,2.44
2017-05-27T16:21:35.361Z,2.90
2017-05-27T16:24:04.287Z,2.50
2017-05-27T16:26:35.476Z,2.22
2017-05-27T16:29:18.141Z,1.72
2017-05-27T16:31:47.798Z,2.38
2017-05-27T16:34:20.889Z,2.10
2017-05-27T16:36:50.522Z,2.36
2017-05-27T16:39:19.497Z,2.04
2017-05-27T16:41:50.478Z,1.88
2017-05-27T16:44:21.487Z,2.34
2017-05-27T16:46:50.419Z,2.32
2017-05-27T16:49:19.357Z,1.80
2017-05-27T16:51:48.251Z,2.62
2017-05-27T16:54:17.185Z,2.32
2017-05-27T16:56:53.912Z,2.28
2017-05-27T16:59:22.833Z,2.08
2017-05-27T17:01:54.992Z,2.30
2017-05-27T17:04:23.946Z,2.24
2017-05-27T17:06:52.861Z,2.00
2017-05-27T17:09:22.259Z,2.10
2017-05-27T17:11:58.498Z,2.42
2017-05-27T17:14:27.768Z,2.00
2017-05-27T17:16:56.712Z,2.36
2017-05-27T17:19:28.930Z,2.18
2017-05-27T17:21:58.026Z,1.82
2017-05-27T17:24:26.993Z,2.60
2017-05-27T17:26:55.893Z,2.34
2017-05-27T17:29:25.580Z,2.20
2017-05-27T17:31:54.501Z,2.06
2017-05-27T17:34:24.171Z,2.06
2017-05-27T17:36:53.141Z,2.08
2017-05-27T17:39:22.126Z,1.92
2017-05-27T17:41:51.015Z,2.40
2017-05-27T17:44:20.729Z,2.34
2017-05-27T17:46:50.477Z,2.46
2017-05-27T17:49:18.613Z,2.30
2017-05-27T17:51:48.279Z,1.80
2017-05-27T17:54:17.708Z,2.56
2017-05-27T17:56:48.196Z,2.62
2017-05-27T17:59:19.154Z,2.26
2017-05-27T18:01:50.090Z,2.74
2017-05-27T18:04:19.050Z,2.36
2017-05-27T18:06:47.979Z,1.86
2017-05-27T18:09:16.895Z,2.28
2017-05-27T18:11:45.014Z,2.82
2017-05-27T18:14:13.971Z,2.28
2017-05-27T18:16:42.898Z,2.30
2017-05-27T18:19:13.731Z,2.08
2017-05-27T18:21:42.668Z,2.14
2017-05-27T18:24:14.154Z,1.94
2017-05-27T18:26:43.842Z,2.30
2017-05-27T18:29:12.731Z,2.10
2017-05-27T18:31:42.349Z,2.46
2017-05-27T18:34:12.152Z,2.42
2017-05-27T18:36:41.596Z,2.02
2017-05-27T18:39:11.049Z,2.68
2017-05-27T18:41:40.732Z,2.12
2017-05-27T18:44:09.731Z,2.00
2017-05-27T18:46:44.713Z,2.38
2017-05-27T18:49:14.628Z,2.34
2017-05-27T18:51:52.036Z,2.24
2017-05-27T18:54:20.992Z,2.52
2017-05-27T18:56:58.277Z,2.64
2017-05-27T18:59:32.660Z,2.42
2017-05-27T19:02:01.611Z,2.46
2017-05-27T19:10:05.899Z,2.70
2017-05-27T19:12:36.351Z,2.54
2017-05-27T19:15:10.279Z,2.48
2017-05-27T19:20:31.442Z,4.62
2017-05-27T19:23:16.631Z,5.52
2017-05-27T19:25:53.630Z,4.40
2017-05-27T19:28:49.602Z,2.46
2017-05-27T19:34:10.187Z,2.86
2017-05-27T19:39:53.738Z,2.62
2017-05-27T20:18:39.047Z,2.96
2017-05-27T20:21:07.954Z,2.66
2017-05-27T20:30:21.995Z,3.20
2017-05-27T21:44:25.417Z,3.58
2017-05-27T21:47:19.085Z,4.08
2017-05-27T21:50:07.278Z,2.96
2017-05-27T21:52:55.469Z,3.50
2017-05-27T22:09:26.566Z,3.64
2017-05-27T22:27:55.925Z,4.04
2017-05-27T22:30:24.835Z,3.72
2017-05-27T22:32:52.959Z,3.48
2017-05-27T22:35:21.906Z,3.60
2017-05-27T22:40:42.239Z,3.84
2017-05-27T22:43:16.350Z,4.10
2017-05-27T22:45:46.000Z,4.32
2017-05-27T22:48:15.802Z,3.90
2017-05-27T22:50:46.187Z,3.60
2017-05-27T22:53:17.701Z,4.26
2017-05-27T22:55:46.692Z,3.68
2017-05-27T22:58:16.071Z,4.28
2017-05-27T23:00:45.705Z,3.94
2017-05-27T23:03:16.382Z,4.10
2017-05-27T23:05:47.994Z,4.38
2017-05-27T23:08:21.075Z,4.30
2017-05-27T23:10:50.495Z,3.62
2017-05-27T23:13:20.441Z,3.96
2017-05-27T23:18:32.464Z,4.00
2017-05-27T23:21:02.224Z,4.06
2017-05-27T23:23:31.295Z,3.60
2017-05-27T23:26:02.284Z,3.90
2017-05-27T23:28:31.176Z,4.30
2017-05-27T23:31:02.107Z,4.42
2017-05-27T23:33:31.447Z,4.02
2017-05-27T23:36:00.930Z,3.80
2017-05-27T23:38:30.272Z,3.54
2017-05-27T23:40:59.176Z,3.38
2017-05-27T23:43:39.047Z,3.40
2017-05-27T23:46:25.847Z,3.54
2017-05-27T23:48:57.402Z,3.40
2017-05-27T23:51:27.177Z,3.16
2017-05-27T23:53:56.286Z,3.20
2017-05-27T23:56:25.175Z,3.70
2017-05-27T23:59:06.406Z,3.50
